createdAt,value
2019-03-30T00:00:30.980Z,31.40
2019-03-30T00:03:02.350Z,32.57
2019-03-30T00:05:32.778Z,35.20
2019-03-30T00:08:03.196Z,36.30
2019-03-30T00:10:33.748Z,33.80
2019-03-30T00:13:04.165Z,35.57
2019-03-30T00:15:34.611Z,30.33
2019-03-30T00:18:05.001Z,35.97
2019-03-30T00:20:35.458Z,31.17
2019-03-30T00:23:05.860Z,29.57
2019-03-30T00:25:36.359Z,32.17
2019-03-30T00:28:06.775Z,32.20
2019-03-30T00:30:37.246Z,36.77
2019-03-30T00:33:07.689Z,33.10
2019-03-30T00:35:38.167Z,34.83
2019-03-30T00:38:08.599Z,33.63
2019-03-30T00:40:39.060Z,37.20
2019-03-30T00:43:09.501Z,37.40
2019-03-30T00:45:39.984Z,32.27
2019-03-30T00:48:10.454Z,27.83
2019-03-30T00:50:40.959Z,38.03
2019-03-30T00:53:11.376Z,37.63
2019-03-30T00:55:41.838Z,36.97
2019-03-30T00:58:12.259Z,37.53
2019-03-30T01:00:42.753Z,37.43
2019-03-30T01:03:13.394Z,39.70
2019-03-30T01:05:43.834Z,37.40
2019-03-30T01:08:14.261Z,34.53
2019-03-30T01:10:44.804Z,40.40
2019-03-30T01:13:15.235Z,38.30
2019-03-30T01:15:47.121Z,32.27
2019-03-30T01:18:17.543Z,28.33
2019-03-30T01:20:48.018Z,32.30
2019-03-30T01:23:18.445Z,31.97
2019-03-30T01:25:48.920Z,29.27
2019-03-30T01:28:19.367Z,28.87
2019-03-30T01:30:49.819Z,29.43
2019-03-30T01:33:20.265Z,27.17
2019-03-30T01:35:50.704Z,27.93
2019-03-30T01:38:21.149Z,27.20
2019-03-30T01:40:51.625Z,26.37
2019-03-30T01:43:22.061Z,28.03
2019-03-30T01:45:52.527Z,26.37
2019-03-30T01:48:22.934Z,29.53
2019-03-30T01:50:53.377Z,29.27
2019-03-30T01:53:23.743Z,26.03
2019-03-30T01:55:54.228Z,21.23
2019-03-30T01:58:24.660Z,27.67
2019-03-30T02:00:55.125Z,28.97
2019-03-30T02:03:26.440Z,28.53
2019-03-30T02:05:56.913Z,23.27
2019-03-30T02:08:27.328Z,28.33
2019-03-30T02:10:57.880Z,27.83
2019-03-30T02:13:28.286Z,27.10
2019-03-30T02:15:58.736Z,28.37
2019-03-30T02:18:29.438Z,22.40
2019-03-30T02:20:59.970Z,24.53
2019-03-30T02:23:30.393Z,28.67
2019-03-30T02:26:00.847Z,31.93
2019-03-30T02:28:31.273Z,34.73
2019-03-30T02:31:01.764Z,30.90
2019-03-30T02:33:32.185Z,29.43
2019-03-30T02:36:02.694Z,34.00
2019-03-30T02:38:33.110Z,27.73
2019-03-30T02:41:03.609Z,27.07
2019-03-30T02:43:34.041Z,26.23
2019-03-30T02:46:06.559Z,27.13
2019-03-30T02:48:36.989Z,28.77
2019-03-30T02:51:07.450Z,27.83
2019-03-30T02:53:37.860Z,32.13
2019-03-30T02:56:08.361Z,28.83
2019-03-30T02:58:38.762Z,34.43
2019-03-30T03:01:09.266Z,33.73
2019-03-30T03:03:40.560Z,32.67
2019-03-30T03:06:11.136Z,38.63
2019-03-30T03:08:41.545Z,32.03
2019-03-30T03:11:12.111Z,38.53
2019-03-30T03:13:42.550Z,39.57
2019-03-30T03:16:13.044Z,38.73
2019-03-30T03:18:43.429Z,34.60
2019-03-30T03:21:13.902Z,34.40
2019-03-30T03:23:44.303Z,39.87
2019-03-30T03:26:14.786Z,41.10
2019-03-30T03:28:45.216Z,51.57
2019-03-30T03:31:15.680Z,43.40
2019-03-30T03:33:46.130Z,40.00
2019-03-30T03:36:16.570Z,43.07
2019-03-30T03:38:46.944Z,37.10
2019-03-30T03:41:17.438Z,40.90
2019-03-30T03:43:47.865Z,38.77
2019-03-30T03:46:18.331Z,39.53
2019-03-30T03:48:48.782Z,40.47
2019-03-30T03:51:26.072Z,39.07
2019-03-30T03:53:53.202Z,41.00
2019-03-30T03:56:25.949Z,37.93
2019-03-30T03:58:57.888Z,43.73
2019-03-30T04:01:28.572Z,48.23
2019-03-30T04:04:00.662Z,44.43
2019-03-30T04:06:33.005Z,40.17
2019-03-30T04:09:04.887Z,43.37
2019-03-30T04:11:38.093Z,52.67
2019-03-30T04:14:11.743Z,49.00
2019-03-30T04:16:42.202Z,43.33
2019-03-30T04:19:12.606Z,49.73
2019-03-30T04:21:44.811Z,45.83
2019-03-30T04:24:15.201Z,48.90
2019-03-30T04:26:45.685Z,53.17
2019-03-30T04:29:16.104Z,72.50
2019-03-30T04:31:46.597Z,70.10
2019-03-30T04:34:17.037Z,76.77
2019-03-30T04:36:47.562Z,70.57
2019-03-30T04:39:18.001Z,75.37
2019-03-30T04:41:48.486Z,72.43
2019-03-30T04:44:18.912Z,79.20
2019-03-30T04:46:49.411Z,73.23
2019-03-30T04:49:19.854Z,75.87
2019-03-30T04:51:57.415Z,79.13
2019-03-30T04:54:22.499Z,77.23
2019-03-30T04:56:52.990Z,69.43
2019-03-30T04:59:23.437Z,78.47
2019-03-30T05:01:53.927Z,73.33
2019-03-30T05:04:25.280Z,77.03
2019-03-30T05:06:55.785Z,75.10
2019-03-30T05:09:26.213Z,76.17
2019-03-30T05:11:56.784Z,71.20
2019-03-30T05:14:27.282Z,76.47
2019-03-30T05:16:57.792Z,69.70
2019-03-30T05:19:28.275Z,60.67
2019-03-30T05:22:11.443Z,58.83
2019-03-30T05:24:30.901Z,62.70
2019-03-30T05:27:01.404Z,67.13
2019-03-30T05:29:31.855Z,56.97
2019-03-30T05:32:02.339Z,55.10
2019-03-30T05:34:32.783Z,60.03
2019-03-30T05:37:03.299Z,58.77
2019-03-30T05:39:33.756Z,66.03
2019-03-30T05:42:04.224Z,70.57
2019-03-30T05:44:34.670Z,66.13
2019-03-30T05:47:05.140Z,69.77
2019-03-30T05:49:35.596Z,60.20
2019-03-30T05:52:06.096Z,66.73
2019-03-30T05:54:36.564Z,56.23
2019-03-30T05:57:07.065Z,64.90
2019-03-30T05:59:37.553Z,63.70
2019-03-30T06:02:08.022Z,56.47
2019-03-30T06:04:38.803Z,57.93
2019-03-30T06:07:09.291Z,51.53
2019-03-30T06:09:39.764Z,46.30
2019-03-30T06:12:10.320Z,53.33
2019-03-30T06:14:40.744Z,54.83
2019-03-30T06:17:11.248Z,61.17
2019-03-30T06:19:41.702Z,56.03
2019-03-30T06:22:12.169Z,45.97
2019-03-30T06:24:42.593Z,44.17
2019-03-30T06:27:13.083Z,42.63
2019-03-30T06:29:43.477Z,52.60
2019-03-30T06:32:13.970Z,101.20
2019-03-30T06:34:44.414Z,67.03
2019-03-30T06:37:14.915Z,111.00
2019-03-30T06:39:45.354Z,90.93
2019-03-30T06:42:15.807Z,61.60
2019-03-30T06:44:46.284Z,53.63
2019-03-30T06:47:16.807Z,47.43
2019-03-30T06:49:47.290Z,43.00
2019-03-30T06:52:17.890Z,57.50
2019-03-30T06:54:48.353Z,63.00
2019-03-30T06:57:18.835Z,58.80
2019-03-30T06:59:49.299Z,66.10
2019-03-30T07:02:19.821Z,56.37
2019-03-30T07:04:51.789Z,44.80
2019-03-30T07:07:23.718Z,50.70
2019-03-30T07:09:54.241Z,53.33
2019-03-30T07:12:24.892Z,63.47
2019-03-30T07:14:58.279Z,52.90
2019-03-30T07:17:29.974Z,58.23
2019-03-30T07:20:02.734Z,60.33
2019-03-30T07:22:33.244Z,47.30
2019-03-30T07:25:03.800Z,46.97
2019-03-30T07:27:34.326Z,44.30
2019-03-30T07:30:08.564Z,54.47
2019-03-30T07:32:39.092Z,40.17
2019-03-30T07:35:09.538Z,41.53
2019-03-30T07:37:40.052Z,40.90
2019-03-30T07:40:10.727Z,43.03
2019-03-30T07:42:41.192Z,41.43
2019-03-30T07:45:12.943Z,45.47
2019-03-30T07:47:43.481Z,36.13
2019-03-30T07:50:14.009Z,31.67
2019-03-30T07:52:44.519Z,41.53
2019-03-30T07:55:14.976Z,31.80
2019-03-30T07:57:45.468Z,36.47
2019-03-30T08:00:16.829Z,50.27
2019-03-30T08:02:47.322Z,40.53
2019-03-30T08:05:18.785Z,32.67
2019-03-30T08:07:49.259Z,52.07
2019-03-30T08:10:19.789Z,40.33
2019-03-30T08:12:50.354Z,42.27
2019-03-30T08:15:20.939Z,28.03
2019-03-30T08:17:53.199Z,25.70
2019-03-30T08:20:24.150Z,32.30
2019-03-30T08:22:54.614Z,34.73
2019-03-30T08:25:25.205Z,28.10
2019-03-30T08:27:55.704Z,29.43
2019-03-30T08:30:26.145Z,23.40
2019-03-30T08:32:56.735Z,28.57
2019-03-30T08:35:27.230Z,24.53
2019-03-30T08:37:57.828Z,34.93
2019-03-30T08:40:28.368Z,26.13
2019-03-30T08:42:58.902Z,30.77
2019-03-30T08:45:29.377Z,27.03
2019-03-30T08:47:59.887Z,27.17
2019-03-30T08:50:30.346Z,30.93
2019-03-30T08:53:00.879Z,26.10
2019-03-30T08:55:31.372Z,37.53
2019-03-30T08:58:01.975Z,32.57
2019-03-30T09:00:40.268Z,33.27
2019-03-30T09:03:10.991Z,34.53
2019-03-30T09:05:42.388Z,30.43
2019-03-30T09:08:12.897Z,36.80
2019-03-30T09:10:43.450Z,28.43
2019-03-30T09:13:15.626Z,36.23
2019-03-30T09:15:46.083Z,24.43
2019-03-30T09:18:16.607Z,29.03
2019-03-30T09:20:47.074Z,32.33
2019-03-30T09:23:17.619Z,24.10
2019-03-30T09:25:48.098Z,24.63
2019-03-30T09:28:18.730Z,26.43
2019-03-30T09:30:49.170Z,33.03
2019-03-30T09:33:19.782Z,28.27
2019-03-30T09:35:50.318Z,29.83
2019-03-30T09:38:20.855Z,25.00
2019-03-30T09:40:51.361Z,26.67
2019-03-30T09:43:21.867Z,26.63
2019-03-30T09:45:52.353Z,40.03
2019-03-30T09:48:22.861Z,23.17
2019-03-30T09:50:53.312Z,25.57
2019-03-30T09:53:23.800Z,23.77
2019-03-30T09:55:54.277Z,28.43
2019-03-30T09:58:24.774Z,24.77
2019-03-30T10:00:55.220Z,20.50
2019-03-30T10:03:25.748Z,20.00
2019-03-30T10:05:57.082Z,18.97
2019-03-30T10:08:27.632Z,33.00
2019-03-30T10:10:58.131Z,25.60
2019-03-30T10:13:28.750Z,27.00
2019-03-30T10:15:59.218Z,24.90
2019-03-30T10:18:29.813Z,27.30
2019-03-30T10:21:00.277Z,39.07
2019-03-30T10:23:30.806Z,21.57
2019-03-30T10:26:01.351Z,22.67
2019-03-30T10:28:31.899Z,20.30
2019-03-30T10:31:02.390Z,23.87
2019-03-30T10:33:32.913Z,21.63
2019-03-30T10:36:03.371Z,29.27
2019-03-30T10:38:34.277Z,22.47
2019-03-30T10:41:04.734Z,19.30
2019-03-30T10:43:35.323Z,19.63
2019-03-30T10:46:06.241Z,23.53
2019-03-30T10:48:36.877Z,24.23
2019-03-30T10:51:07.365Z,18.90
2019-03-30T10:53:39.427Z,20.43
2019-03-30T10:56:09.979Z,20.47
2019-03-30T10:58:40.492Z,24.87
2019-03-30T11:01:11.082Z,25.77
2019-03-30T11:03:41.599Z,27.90
2019-03-30T11:06:13.003Z,22.93
2019-03-30T11:08:43.708Z,23.03
2019-03-30T11:11:14.240Z,35.30
2019-03-30T11:13:44.851Z,21.30
2019-03-30T11:16:15.317Z,20.53
2019-03-30T11:18:45.894Z,38.07
2019-03-30T11:21:16.502Z,20.77
2019-03-30T11:23:47.033Z,18.90
2019-03-30T11:26:17.869Z,25.57
2019-03-30T11:28:48.417Z,23.27
2019-03-30T11:31:19.901Z,24.33
2019-03-30T11:33:50.395Z,27.53
2019-03-30T11:36:20.846Z,29.13
2019-03-30T11:38:51.399Z,36.17
2019-03-30T11:41:24.851Z,28.73
2019-03-30T11:43:53.994Z,20.10
2019-03-30T11:46:24.437Z,19.87
2019-03-30T11:48:54.938Z,28.10
2019-03-30T11:51:26.640Z,28.60
2019-03-30T11:53:57.177Z,22.80
2019-03-30T11:56:27.606Z,31.67
2019-03-30T11:58:58.127Z,24.73
2019-03-30T12:01:28.656Z,29.90
2019-03-30T12:03:59.109Z,22.10
2019-03-30T12:06:30.362Z,26.27
2019-03-30T12:09:00.866Z,25.97
2019-03-30T12:11:31.299Z,29.77
2019-03-30T12:14:01.857Z,30.17
2019-03-30T12:16:32.295Z,28.63
2019-03-30T12:19:02.905Z,21.63
2019-03-30T12:21:33.341Z,32.73
2019-03-30T12:24:03.798Z,24.30
2019-03-30T12:26:34.227Z,27.20
2019-03-30T12:29:04.700Z,26.02
2019-03-30T12:31:35.117Z,24.92
2019-03-30T12:34:05.581Z,23.27
2019-03-30T12:36:36.129Z,25.85
2019-03-30T12:39:08.235Z,25.20
2019-03-30T12:41:38.657Z,20.80
2019-03-30T12:44:09.144Z,25.55
2019-03-30T12:46:39.585Z,21.15
2019-03-30T12:49:10.109Z,19.35
2019-03-30T12:51:40.527Z,18.27
2019-03-30T12:54:11.025Z,24.82
2019-03-30T12:56:41.471Z,20.37
2019-03-30T12:59:11.949Z,19.80
2019-03-30T13:01:42.386Z,22.58
2019-03-30T13:04:12.859Z,22.40
2019-03-30T13:06:44.175Z,17.82
2019-03-30T13:09:14.646Z,22.17
2019-03-30T13:11:45.089Z,23.45
2019-03-30T13:14:15.667Z,39.10
2019-03-30T13:16:46.106Z,49.35
2019-03-30T13:19:16.600Z,24.47
2019-03-30T13:21:52.790Z,47.60
2019-03-30T13:24:19.238Z,29.27
2019-03-30T13:26:49.692Z,25.77
2019-03-30T13:29:20.204Z,86.17
2019-03-30T13:31:50.625Z,26.33
2019-03-30T13:34:21.034Z,28.17
2019-03-30T13:36:51.464Z,27.62
2019-03-30T13:39:21.956Z,22.02
2019-03-30T13:41:52.395Z,22.82
2019-03-30T13:44:22.880Z,28.40
2019-03-30T13:46:53.338Z,20.25
2019-03-30T13:49:23.817Z,21.90
2019-03-30T13:51:54.271Z,19.35
2019-03-30T13:54:24.749Z,21.12
2019-03-30T13:56:55.186Z,21.80
2019-03-30T13:59:25.671Z,22.48
2019-03-30T14:01:56.092Z,35.88
2019-03-30T14:04:26.572Z,19.90
2019-03-30T14:06:58.079Z,19.95
2019-03-30T14:09:28.564Z,17.27
2019-03-30T14:11:59.011Z,19.60
2019-03-30T14:14:29.559Z,37.13
2019-03-30T14:17:00.015Z,25.43
2019-03-30T14:19:30.518Z,30.62
2019-03-30T14:22:00.997Z,25.15
2019-03-30T14:24:31.498Z,24.80
2019-03-30T14:27:01.909Z,27.02
2019-03-30T14:29:32.395Z,23.93
2019-03-30T14:32:02.864Z,20.40
2019-03-30T14:34:33.320Z,25.93
2019-03-30T14:37:03.774Z,23.33
2019-03-30T14:39:34.259Z,22.37
2019-03-30T14:42:04.914Z,26.97
2019-03-30T14:44:35.372Z,25.70
2019-03-30T14:47:05.819Z,29.13
2019-03-30T14:49:36.298Z,33.67
2019-03-30T14:52:06.737Z,28.33
2019-03-30T14:54:37.273Z,33.70
2019-03-30T14:57:07.715Z,32.83
2019-03-30T14:59:38.247Z,32.47
2019-03-30T15:02:08.694Z,30.90
2019-03-30T15:04:39.274Z,34.23
2019-03-30T15:07:11.443Z,36.77
2019-03-30T15:09:41.964Z,29.23
2019-03-30T15:12:12.482Z,28.03
2019-03-30T15:14:43.063Z,27.30
2019-03-30T15:17:13.511Z,30.67
2019-03-30T15:19:44.029Z,28.40
2019-03-30T15:22:14.526Z,35.80
2019-03-30T15:24:45.007Z,27.90
2019-03-30T15:27:15.441Z,30.33
2019-03-30T15:29:45.891Z,32.87
2019-03-30T15:32:16.325Z,32.70
2019-03-30T15:34:46.789Z,27.77
2019-03-30T15:37:17.279Z,33.07
2019-03-30T15:39:47.879Z,26.03
2019-03-30T15:42:18.377Z,29.10
2019-03-30T15:44:48.842Z,44.63
2019-03-30T15:47:19.270Z,33.63
2019-03-30T15:49:49.736Z,33.30
2019-03-30T15:52:20.346Z,29.27
2019-03-30T15:54:50.823Z,29.07
2019-03-30T15:57:21.276Z,30.67
2019-03-30T15:59:51.795Z,45.03
2019-03-30T16:02:22.638Z,41.10
2019-03-30T16:04:53.111Z,31.77
2019-03-30T16:07:24.405Z,38.23
2019-03-30T16:09:54.944Z,35.80
2019-03-30T16:12:25.376Z,41.77
2019-03-30T16:14:55.923Z,47.90
2019-03-30T16:17:26.365Z,46.87
2019-03-30T16:19:56.874Z,44.97
2019-03-30T16:22:27.307Z,47.83
2019-03-30T16:24:57.801Z,53.77
2019-03-30T16:27:29.505Z,58.37
2019-03-30T16:30:00.314Z,59.00
2019-03-30T16:32:30.818Z,83.90
2019-03-30T16:35:01.279Z,57.50
2019-03-30T16:37:31.726Z,55.07
2019-03-30T16:40:02.313Z,47.63
2019-03-30T16:42:32.770Z,55.30
2019-03-30T16:45:03.271Z,43.07
2019-03-30T16:47:33.811Z,45.60
2019-03-30T16:50:05.555Z,56.57
2019-03-30T16:52:36.040Z,50.13
2019-03-30T16:55:06.617Z,51.30
2019-03-30T16:57:43.666Z,55.27
2019-03-30T17:00:09.996Z,61.60
2019-03-30T17:02:40.449Z,45.13
2019-03-30T17:05:11.726Z,65.47
2019-03-30T17:07:43.122Z,52.73
2019-03-30T17:10:13.706Z,55.40
2019-03-30T17:12:44.161Z,56.57
2019-03-30T17:15:14.730Z,54.37
2019-03-30T17:17:45.194Z,53.70
2019-03-30T17:20:15.699Z,64.33
2019-03-30T17:22:46.144Z,78.50
2019-03-30T17:25:16.642Z,81.97
2019-03-30T17:27:58.145Z,72.67
2019-03-30T17:30:19.271Z,77.47
2019-03-30T17:32:49.739Z,87.97
2019-03-30T17:35:20.218Z,78.73
2019-03-30T17:37:50.659Z,74.93
2019-03-30T17:40:21.174Z,72.67
2019-03-30T17:42:51.620Z,69.23
2019-03-30T17:45:22.117Z,74.50
2019-03-30T17:47:52.572Z,60.17
2019-03-30T17:50:23.041Z,82.37
2019-03-30T17:52:53.510Z,109.63
2019-03-30T17:55:33.486Z,112.33
2019-03-30T17:57:56.171Z,54.57
2019-03-30T18:00:26.619Z,72.90
2019-03-30T18:02:57.041Z,70.33
2019-03-30T18:05:27.528Z,64.07
2019-03-30T18:08:01.698Z,63.10
2019-03-30T18:10:31.025Z,62.03
2019-03-30T18:13:01.467Z,52.87
2019-03-30T18:15:34.642Z,52.87
2019-03-30T18:18:04.144Z,52.50
2019-03-30T18:20:34.605Z,60.70
2019-03-30T18:23:05.033Z,70.60
2019-03-30T18:25:35.531Z,76.90
2019-03-30T18:28:05.969Z,87.07
2019-03-30T18:30:39.348Z,85.50
2019-03-30T18:33:09.944Z,111.50
2019-03-30T18:35:41.023Z,100.90
2019-03-30T18:38:13.065Z,84.83
2019-03-30T18:40:43.887Z,97.47
2019-03-30T18:43:14.341Z,95.30
2019-03-30T18:45:44.846Z,99.93
2019-03-30T18:48:17.031Z,92.13
2019-03-30T18:50:47.930Z,98.27
2019-03-30T18:53:18.380Z,114.37
2019-03-30T18:55:48.888Z,90.33
2019-03-30T18:58:19.356Z,106.00
2019-03-30T19:00:49.862Z,93.17
2019-03-30T19:03:22.234Z,95.77
2019-03-30T19:05:52.740Z,97.00
2019-03-30T19:08:24.082Z,97.03
2019-03-30T19:10:54.583Z,96.93
2019-03-30T19:13:25.060Z,121.30
2019-03-30T19:15:55.641Z,144.37
2019-03-30T19:18:26.113Z,116.27
2019-03-30T19:20:56.613Z,108.63
2019-03-30T19:23:27.059Z,99.97
2019-03-30T19:25:57.569Z,101.20
2019-03-30T19:28:28.184Z,102.33
2019-03-30T19:30:58.660Z,98.57
2019-03-30T19:33:29.169Z,100.17
2019-03-30T19:35:59.659Z,123.60
2019-03-30T19:38:30.100Z,125.97
2019-03-30T19:41:00.572Z,138.10
2019-03-30T19:43:31.060Z,149.83
2019-03-30T19:46:01.547Z,142.20
2019-03-30T19:48:31.986Z,180.27
2019-03-30T19:51:02.508Z,153.97
2019-03-30T19:53:32.923Z,152.27
2019-03-30T19:56:03.411Z,149.37
2019-03-30T19:58:33.859Z,142.83
2019-03-30T20:01:04.410Z,154.40
2019-03-30T20:03:34.935Z,152.93
2019-03-30T20:06:05.348Z,161.57
2019-03-30T20:08:36.716Z,139.67
2019-03-30T20:11:07.238Z,174.50
2019-03-30T20:13:37.717Z,147.17
2019-03-30T20:16:08.268Z,140.23
2019-03-30T20:18:38.712Z,148.80
2019-03-30T20:21:09.193Z,138.57
2019-03-30T20:23:39.629Z,134.53
2019-03-30T20:26:10.123Z,142.83
2019-03-30T20:28:40.574Z,179.53
2019-03-30T20:31:11.072Z,273.57
2019-03-30T20:33:41.500Z,225.63
2019-03-30T20:36:12.001Z,208.47
2019-03-30T20:38:42.457Z,194.70
2019-03-30T20:41:13.323Z,185.83
2019-03-30T20:43:43.795Z,171.07
2019-03-30T20:46:14.280Z,156.33
2019-03-30T20:48:44.751Z,179.03
2019-03-30T20:51:15.296Z,165.23
2019-03-30T20:53:45.800Z,175.83
2019-03-30T20:56:16.309Z,176.20
2019-03-30T20:58:46.783Z,177.57
2019-03-30T21:01:17.265Z,260.90
2019-03-30T21:03:47.711Z,242.23
2019-03-30T21:06:18.228Z,219.17
2019-03-30T21:08:49.553Z,196.70
2019-03-30T21:11:20.026Z,232.17
2019-03-30T21:13:50.512Z,251.63
2019-03-30T21:16:21.080Z,179.43
2019-03-30T21:18:51.528Z,163.80
2019-03-30T21:21:22.014Z,160.80
2019-03-30T21:23:52.434Z,163.07
2019-03-30T21:26:22.906Z,164.57
2019-03-30T21:28:53.374Z,152.00
2019-03-30T21:31:23.910Z,149.37
2019-03-30T21:33:54.396Z,168.73
2019-03-30T21:36:24.911Z,158.00
2019-03-30T21:38:55.384Z,156.60
2019-03-30T21:41:25.876Z,144.43
2019-03-30T21:43:56.361Z,154.03
2019-03-30T21:46:26.870Z,161.37
2019-03-30T21:48:57.327Z,171.97
2019-03-30T21:51:27.828Z,186.40
2019-03-30T21:53:58.269Z,186.50
2019-03-30T21:56:28.729Z,196.63
2019-03-30T21:58:59.154Z,186.67
2019-03-30T22:01:29.665Z,206.43
2019-03-30T22:04:00.117Z,173.43
2019-03-30T22:06:30.728Z,160.80
2019-03-30T22:09:02.059Z,171.40
2019-03-30T22:11:32.551Z,153.37
2019-03-30T22:14:02.977Z,153.20
2019-03-30T22:16:33.543Z,144.33
2019-03-30T22:19:04.010Z,138.80
2019-03-30T22:21:34.492Z,152.00
2019-03-30T22:24:04.928Z,139.97
2019-03-30T22:26:35.401Z,142.23
2019-03-30T22:29:05.846Z,145.17
2019-03-30T22:31:36.231Z,145.73
2019-03-30T22:34:06.710Z,155.50
2019-03-30T22:36:37.192Z,163.33
2019-03-30T22:39:08.029Z,165.17
2019-03-30T22:41:38.512Z,161.67
2019-03-30T22:44:08.970Z,178.90
2019-03-30T22:46:39.450Z,171.60
2019-03-30T22:49:09.894Z,170.27
2019-03-30T22:51:40.347Z,181.40
2019-03-30T22:54:10.809Z,173.77
2019-03-30T22:56:41.282Z,160.70
2019-03-30T22:59:11.731Z,164.80
2019-03-30T23:01:42.341Z,160.43
2019-03-30T23:04:12.758Z,163.27
2019-03-30T23:06:43.219Z,150.00
2019-03-30T23:09:14.598Z,143.80
2019-03-30T23:11:45.131Z,134.53
2019-03-30T23:14:15.544Z,141.17
2019-03-30T23:16:46.140Z,133.17
2019-03-30T23:19:16.582Z,128.80
2019-03-30T23:21:47.035Z,128.30
2019-03-30T23:24:17.505Z,131.13
2019-03-30T23:26:47.984Z,139.53
2019-03-30T23:29:18.449Z,130.87
2019-03-30T23:31:48.935Z,132.60
2019-03-30T23:34:19.372Z,136.07
2019-03-30T23:36:49.891Z,140.07
2019-03-30T23:39:20.336Z,133.97
2019-03-30T23:41:50.820Z,137.90
2019-03-30T23:44:21.272Z,130.23
2019-03-30T23:46:51.742Z,124.80
2019-03-30T23:49:22.181Z,118.97
2019-03-30T23:51:52.683Z,120.80
2019-03-30T23:54:23.115Z,127.90
2019-03-30T23:56:53.652Z,120.80
2019-03-30T23:59:24.087Z,127.60
